Time;durP1;ratioP1;P1;durP2;ratioP2;P2;SDS_P1;SDS_P2;PMS_P1;PMS_P2;Temp;Humidity;BMP_temperature;BMP_pressure;BME280_temperature;BME280_humidity;BME280_pressure;Samples;Min_cycle;Max_cycle;Signal;HPM_P1;HPM_P2
2022/04/26 03:36:17;;;;;;;30.17;19.98;;;;;;;;;;5053950;28;20036;-85
2022/04/26 03:38:43;;;;;;;32.85;19.55;;;;;;;;;;5056444;28;20247;-86
2022/04/26 03:41:09;;;;;;;29.17;18.40;;;;;;;;;;5038531;28;20043;-86
2022/04/26 03:43:35;;;;;;;30.98;19.42;;;;;;;;;;5055953;28;20103;-86
2022/04/26 03:46:00;;;;;;;32.97;20.95;;;;;;;;;;5038351;28;20063;-86
2022/04/26 03:48:26;;;;;;;33.90;20.45;;;;;;;;;;5056358;28;20052;-84
2022/04/26 03:50:51;;;;;;;34.30;20.92;;;;;;;;;;5038428;28;20057;-86
2022/04/26 03:53:17;;;;;;;32.10;19.77;;;;;;;;;;5055210;28;20032;-87
2022/04/26 03:55:42;;;;;;;29.55;18.80;;;;;;;;;;5055504;28;20048;-86
2022/04/26 03:58:07;;;;;;;33.42;18.90;;;;;;;;;;5057739;28;20017;-87
2022/04/26 04:00:33;;;;;;;33.80;20.40;;;;;;;;;;5057246;28;20029;-86
2022/04/26 04:02:58;;;;;;;31.80;20.38;;;;;;;;;;5057586;28;20360;-85
2022/04/26 04:05:24;;;;;;;31.73;18.70;;;;;;;;;;5039220;28;20025;-87
2022/04/26 04:07:49;;;;;;;30.10;19.00;;;;;;;;;;5056804;28;20550;-85
2022/04/26 04:10:14;;;;;;;34.88;18.42;;;;;;;;;;5056859;28;20020;-84
2022/04/26 04:12:40;;;;;;;28.73;18.17;;;;;;;;;;5057443;28;20032;-86
2022/04/26 04:15:06;;;;;;;25.90;17.48;;;;;;;;;;5056026;28;20024;-87
2022/04/26 04:17:31;;;;;;;31.88;19.17;;;;;;;;;;5056542;28;20479;-87
2022/04/26 04:19:57;;;;;;;30.45;19.75;;;;;;;;;;5038092;28;20036;-87
2022/04/26 04:22:22;;;;;;;28.35;18.63;;;;;;;;;;5054621;28;20040;-86
2022/04/26 04:24:48;;;;;;;28.38;18.92;;;;;;;;;;5053863;28;20028;-84
2022/04/26 04:27:14;;;;;;;29.15;18.50;;;;;;;;;;5055298;28;20079;-85
2022/04/26 04:29:39;;;;;;;30.80;18.45;;;;;;;;;;5055185;28;20021;-85
2022/04/26 04:32:05;;;;;;;28.92;18.17;;;;;;;;;;5055114;28;20023;-86
2022/04/26 04:34:30;;;;;;;31.00;18.73;;;;;;;;;;5054612;28;20394;-86
2022/04/26 04:36:56;;;;;;;26.83;16.05;;;;;;;;;;5055650;28;20037;-88
2022/04/26 04:39:23;;;;;;;24.85;16.80;;;;;;;;;;5051851;28;20100;-87
2022/04/26 04:41:49;;;;;;;32.75;18.95;;;;;;;;;;5050665;28;20404;-85
2022/04/26 04:44:15;;;;;;;28.45;18.38;;;;;;;;;;5050919;28;20047;-84
2022/04/26 04:46:40;;;;;;;31.63;17.83;;;;;;;;;;5049003;28;20498;-88
2022/04/26 04:49:06;;;;;;;27.80;18.00;;;;;;;;;;5055614;28;20098;-87
2022/04/26 04:51:31;;;;;;;30.55;18.60;;;;;;;;;;5036839;28;20179;-86
2022/04/26 04:53:57;;;;;;;26.95;18.08;;;;;;;;;;5036278;28;20025;-85
2022/04/26 04:56:26;;;;;;;25.58;17.75;;;;;;;;;;5054439;28;20032;-87
2022/04/26 04:58:52;;;;;;;27.42;17.65;;;;;;;;;;5055720;28;20024;-86
2022/04/26 05:01:17;;;;;;;24.50;16.58;;;;;;;;;;5055769;28;20060;-84
2022/04/26 05:03:43;;;;;;;26.42;16.90;;;;;;;;;;5055581;28;20040;-88
2022/04/26 05:06:08;;;;;;;27.27;18.25;;;;;;;;;;5035264;28;20559;-88
2022/04/26 05:08:34;;;;;;;26.35;17.33;;;;;;;;;;5054301;28;20037;-86
2022/04/26 05:11:00;;;;;;;28.70;17.75;;;;;;;;;;5053922;28;20031;-88
2022/04/26 05:13:25;;;;;;;25.48;17.08;;;;;;;;;;5056452;28;20054;-87
2022/04/26 05:15:51;;;;;;;26.38;16.58;;;;;;;;;;5055339;28;20471;-85
2022/04/26 05:18:16;;;;;;;25.30;17.38;;;;;;;;;;5055398;28;20056;-87
2022/04/26 05:20:43;;;;;;;26.98;16.45;;;;;;;;;;5055435;28;20037;-85
2022/04/26 05:25:52;;;;;;;30.40;17.27;;;;;;;;;;5054118;28;20035;-87
2022/04/26 05:28:17;;;;;;;27.17;17.45;;;;;;;;;;5054176;28;20024;-85
2022/04/26 05:30:43;;;;;;;28.10;18.45;;;;;;;;;;5053865;28;20039;-86
2022/04/26 05:33:08;;;;;;;29.80;19.00;;;;;;;;;;5035619;28;20115;-86
2022/04/26 05:35:33;;;;;;;22.98;15.63;;;;;;;;;;5054486;28;20073;-85
2022/04/26 05:37:59;;;;;;;22.80;14.98;;;;;;;;;;5054320;28;20032;-86
2022/04/26 05:40:24;;;;;;;26.55;16.98;;;;;;;;;;5054870;28;20029;-86
2022/04/26 05:42:50;;;;;;;25.02;16.65;;;;;;;;;;5054869;28;20175;-85
2022/04/26 05:45:15;;;;;;;25.60;16.75;;;;;;;;;;5054340;28;20545;-86
2022/04/26 05:47:44;;;;;;;23.73;16.52;;;;;;;;;;5055001;28;20100;-87
2022/04/26 05:50:11;;;;;;;27.05;17.23;;;;;;;;;;5053595;28;20059;-86
2022/04/26 05:52:36;;;;;;;26.15;17.48;;;;;;;;;;5055338;28;20021;-87
2022/04/26 05:55:07;;;;;;;25.48;16.77;;;;;;;;;;5054212;28;20176;-85
2022/04/26 05:57:35;;;;;;;23.45;16.17;;;;;;;;;;5058628;28;20860;-87
2022/04/26 06:00:04;;;;;;;24.17;17.30;;;;;;;;;;5058911;28;20025;-86
2022/04/26 06:02:29;;;;;;;19.42;13.13;;;;;;;;;;5058463;28;20093;-87
2022/04/26 06:04:54;;;;;;;24.50;14.73;;;;;;;;;;5058062;28;20518;-88
2022/04/26 06:07:20;;;;;;;26.08;15.93;;;;;;;;;;5040827;28;20021;-87
2022/04/26 06:09:46;;;;;;;24.25;14.95;;;;;;;;;;5041155;28;20021;-86
2022/04/26 06:12:12;;;;;;;25.63;17.13;;;;;;;;;;5060005;28;20025;-86
2022/04/26 06:14:37;;;;;;;28.83;17.52;;;;;;;;;;5059463;28;20032;-87
2022/04/26 06:17:03;;;;;;;26.55;17.27;;;;;;;;;;5059089;28;20029;-87
2022/04/26 06:19:28;;;;;;;29.13;17.95;;;;;;;;;;5039916;28;20091;-86
2022/04/26 06:21:53;;;;;;;27.77;18.10;;;;;;;;;;5057518;28;20025;-87
2022/04/26 06:24:19;;;;;;;25.98;16.58;;;;;;;;;;5039159;28;20040;-86
2022/04/26 06:26:44;;;;;;;27.30;16.50;;;;;;;;;;5057308;28;20054;-85
2022/04/26 06:29:09;;;;;;;27.38;18.05;;;;;;;;;;5057656;28;20395;-87
2022/04/26 06:31:35;;;;;;;29.73;18.10;;;;;;;;;;5057184;28;20025;-86
2022/04/26 06:34:00;;;;;;;31.17;20.08;;;;;;;;;;5061740;28;20021;-85
2022/04/26 06:36:26;;;;;;;32.15;19.63;;;;;;;;;;5071609;28;20107;-85
2022/04/26 06:38:51;;;;;;;30.75;20.00;;;;;;;;;;5063632;28;20025;-84
2022/04/26 06:41:17;;;;;;;32.42;19.55;;;;;;;;;;5058615;28;20028;-85
2022/04/26 06:43:42;;;;;;;31.63;20.88;;;;;;;;;;5056859;28;20066;-84
2022/04/26 06:46:07;;;;;;;36.50;21.50;;;;;;;;;;5055864;28;20128;-83
2022/04/26 06:48:33;;;;;;;31.67;20.17;;;;;;;;;;5038590;28;20028;-87
2022/04/26 06:50:58;;;;;;;32.00;20.13;;;;;;;;;;5056969;28;20409;-86
2022/04/26 06:53:24;;;;;;;28.27;19.23;;;;;;;;;;5038793;28;20441;-87
2022/04/26 06:55:49;;;;;;;32.83;18.40;;;;;;;;;;5056060;28;20041;-86
2022/04/26 06:58:15;;;;;;;27.83;17.33;;;;;;;;;;5056431;28;20063;-83
2022/04/26 07:00:40;;;;;;;17.98;13.40;;;;;;;;;;5055596;28;20031;-85
2022/04/26 07:03:06;;;;;;;17.52;12.55;;;;;;;;;;5058271;28;20021;-84
2022/04/26 07:05:31;;;;;;;16.80;12.32;;;;;;;;;;5056930;28;20075;-84
2022/04/26 07:07:57;;;;;;;18.25;11.45;;;;;;;;;;5055403;28;20112;-83
2022/04/26 07:10:22;;;;;;;16.05;11.32;;;;;;;;;;5057558;28;20094;-84
2022/04/26 07:12:48;;;;;;;17.10;11.95;;;;;;;;;;5057482;28;20178;-85
2022/04/26 07:15:13;;;;;;;16.55;11.40;;;;;;;;;;5057084;28;20036;-84
2022/04/26 07:17:40;;;;;;;16.90;11.32;;;;;;;;;;5056915;28;20389;-84
2022/04/26 07:20:06;;;;;;;14.32;10.48;;;;;;;;;;5058043;28;20021;-83
2022/04/26 07:22:32;;;;;;;14.77;11.05;;;;;;;;;;5039838;28;20108;-83
2022/04/26 07:24:57;;;;;;;15.45;10.55;;;;;;;;;;5049227;28;20060;-85
2022/04/26 07:27:23;;;;;;;18.10;9.98;;;;;;;;;;5058621;28;20032;-84
2022/04/26 07:29:49;;;;;;;12.35;9.43;;;;;;;;;;5056066;28;20539;-84
2022/04/26 07:32:14;;;;;;;12.63;8.60;;;;;;;;;;5038753;28;20032;-83
2022/04/26 07:34:40;;;;;;;12.00;7.63;;;;;;;;;;5055064;28;20390;-84
2022/04/26 07:37:05;;;;;;;12.45;8.32;;;;;;;;;;5055285;28;20372;-86
2022/04/26 07:39:33;;;;;;;10.73;7.72;;;;;;;;;;5056174;28;20028;-85
2022/04/26 07:41:59;;;;;;;11.00;8.55;;;;;;;;;;5056896;28;20060;-85
2022/04/26 07:44:25;;;;;;;10.63;8.20;;;;;;;;;;5055744;28;20024;-85
2022/04/26 07:46:51;;;;;;;9.60;7.35;;;;;;;;;;5056504;28;20447;-85
2022/04/26 07:49:19;;;;;;;10.40;7.85;;;;;;;;;;5056497;28;20411;-86
2022/04/26 07:51:45;;;;;;;13.57;7.70;;;;;;;;;;5055925;28;20021;-85
2022/04/26 07:54:11;;;;;;;9.35;6.95;;;;;;;;;;5056124;28;20028;-85
2022/04/26 07:56:36;;;;;;;10.10;7.50;;;;;;;;;;5055649;28;20024;-84
2022/04/26 07:59:03;;;;;;;11.52;7.70;;;;;;;;;;5056044;28;20033;-85
2022/04/26 08:01:30;;;;;;;10.60;8.05;;;;;;;;;;5056165;28;20056;-85
2022/04/26 08:03:56;;;;;;;11.27;8.30;;;;;;;;;;5056220;28;20060;-85
2022/04/26 08:06:21;;;;;;;13.38;8.95;;;;;;;;;;5048639;28;20284;-81
2022/04/26 08:08:47;;;;;;;13.50;9.27;;;;;;;;;;5056588;28;20364;-85
2022/04/26 08:11:13;;;;;;;11.20;8.20;;;;;;;;;;5057927;28;20043;-83
2022/04/26 08:13:42;;;;;;;14.07;9.00;;;;;;;;;;5039372;28;20033;-82
2022/04/26 08:16:09;;;;;;;11.20;7.93;;;;;;;;;;5035859;28;20030;-84
2022/04/26 08:18:36;;;;;;;16.63;9.65;;;;;;;;;;5055158;28;20028;-83
2022/04/26 08:21:02;;;;;;;15.15;9.88;;;;;;;;;;5054007;28;20052;-86
2022/04/26 08:23:27;;;;;;;16.10;8.98;;;;;;;;;;5055344;28;20159;-85
2022/04/26 08:28:37;;;;;;;11.55;8.65;;;;;;;;;;5055644;28;20044;-87
2022/04/26 08:31:04;;;;;;;11.32;8.57;;;;;;;;;;5055049;28;20037;-86
2022/04/26 08:33:30;;;;;;;11.65;8.25;;;;;;;;;;5037365;28;20024;-85
2022/04/26 08:35:55;;;;;;;12.13;7.40;;;;;;;;;;5053641;28;20025;-86
2022/04/26 08:38:21;;;;;;;9.13;6.70;;;;;;;;;;5035727;28;20174;-86
2022/04/26 08:40:46;;;;;;;9.63;6.95;;;;;;;;;;5054848;28;20173;-86
2022/04/26 08:43:12;;;;;;;11.40;6.38;;;;;;;;;;5055587;28;20075;-86
2022/04/26 08:45:38;;;;;;;13.90;6.82;;;;;;;;;;5055188;28;20029;-86
2022/04/26 08:51:04;;;;;;;9.80;6.45;;;;;;;;;;5055085;28;20032;-87
2022/04/26 08:53:34;;;;;;;8.93;6.15;;;;;;;;;;5037242;28;20028;-87
2022/04/26 08:56:06;;;;;;;10.43;6.38;;;;;;;;;;5054343;28;20089;-87
2022/04/26 08:58:33;;;;;;;11.40;6.80;;;;;;;;;;5055172;28;20029;-84
2022/04/26 09:01:10;;;;;;;11.85;7.35;;;;;;;;;;5052579;28;20029;-87
2022/04/26 09:03:54;;;;;;;8.25;6.65;;;;;;;;;;5054741;28;20478;-87
2022/04/26 09:06:34;;;;;;;10.80;6.65;;;;;;;;;;5052652;28;20086;-87
2022/04/26 09:09:14;;;;;;;8.63;6.60;;;;;;;;;;5037302;28;20025;-87
2022/04/26 09:11:40;;;;;;;9.40;6.75;;;;;;;;;;5054728;28;20029;-88
2022/04/26 09:14:08;;;;;;;7.18;5.82;;;;;;;;;;5055203;28;20451;-88
2022/04/26 09:16:34;;;;;;;10.52;7.43;;;;;;;;;;5052375;28;20021;-89
2022/04/26 09:19:05;;;;;;;8.52;6.28;;;;;;;;;;5055904;28;20027;-90
2022/04/26 09:21:31;;;;;;;9.25;6.10;;;;;;;;;;5055583;28;20467;-88
2022/04/26 09:23:59;;;;;;;9.93;6.32;;;;;;;;;;5055432;28;20032;-86
2022/04/26 09:26:38;;;;;;;9.77;6.22;;;;;;;;;;5055100;28;20029;-83
2022/04/26 09:29:05;;;;;;;9.50;6.07;;;;;;;;;;5053923;28;20067;-83
2022/04/26 09:31:34;;;;;;;8.20;6.28;;;;;;;;;;5056418;28;20099;-85
2022/04/26 09:34:04;;;;;;;8.82;5.75;;;;;;;;;;5040348;28;20070;-84
2022/04/26 09:36:35;;;;;;;9.32;6.32;;;;;;;;;;5058446;28;20525;-85
2022/04/26 09:39:01;;;;;;;10.93;6.00;;;;;;;;;;5060588;28;20024;-84
2022/04/26 09:41:28;;;;;;;7.70;5.20;;;;;;;;;;5062552;28;20048;-84
2022/04/26 09:44:02;;;;;;;7.40;4.57;;;;;;;;;;5042333;28;20032;-86
2022/04/26 09:46:43;;;;;;;7.00;5.53;;;;;;;;;;5059894;28;20032;-85
2022/04/26 09:49:14;;;;;;;8.70;5.25;;;;;;;;;;5060679;28;20045;-86
2022/04/26 09:51:40;;;;;;;11.73;5.73;;;;;;;;;;5058559;28;20100;-85
2022/04/26 09:54:06;;;;;;;9.38;5.93;;;;;;;;;;5040299;28;20397;-86
2022/04/26 09:56:32;;;;;;;10.30;5.90;;;;;;;;;;5057935;28;20090;-86
2022/04/26 09:59:00;;;;;;;8.70;5.45;;;;;;;;;;5063435;28;20592;-83
2022/04/26 10:01:29;;;;;;;10.38;4.72;;;;;;;;;;5067265;28;20028;-84
2022/04/26 10:04:03;;;;;;;8.48;5.40;;;;;;;;;;5062573;28;20031;-85
2022/04/26 10:06:37;;;;;;;9.07;5.28;;;;;;;;;;5057439;28;20087;-83
2022/04/26 10:09:04;;;;;;;6.45;4.70;;;;;;;;;;5057133;28;20023;-83
2022/04/26 10:11:30;;;;;;;7.15;5.03;;;;;;;;;;5057103;28;20028;-84
2022/04/26 10:13:57;;;;;;;6.53;4.72;;;;;;;;;;5057576;28;20024;-84
2022/04/26 10:16:23;;;;;;;7.25;4.55;;;;;;;;;;5056904;28;20029;-83
2022/04/26 10:18:50;;;;;;;5.53;4.15;;;;;;;;;;5057467;28;20036;-84
2022/04/26 10:21:21;;;;;;;6.88;4.25;;;;;;;;;;5056273;28;20029;-86
2022/04/26 10:23:56;;;;;;;6.78;4.00;;;;;;;;;;5057261;28;20025;-84
2022/04/26 10:26:26;;;;;;;5.75;3.63;;;;;;;;;;5057044;28;20478;-84
2022/04/26 10:28:55;;;;;;;9.57;4.18;;;;;;;;;;5057301;28;20082;-84
2022/04/26 10:31:47;;;;;;;6.30;3.92;;;;;;;;;;5056810;28;20478;-84
2022/04/26 10:34:26;;;;;;;;;;;;;;;;;;5057143;28;20021;-84
2022/04/26 10:37:20;;;;;;;4.50;3.30;;;;;;;;;;5056897;28;19908;-85
2022/04/26 10:39:50;;;;;;;6.03;3.42;;;;;;;;;;5043166;28;20033;-84
2022/04/26 10:42:16;;;;;;;8.15;3.78;;;;;;;;;;5055670;28;20425;-83
2022/04/26 10:44:46;;;;;;;4.38;3.42;;;;;;;;;;5056159;28;20536;-86
2022/04/26 10:47:18;;;;;;;5.00;3.50;;;;;;;;;;5038684;28;20025;-84
2022/04/26 10:49:45;;;;;;;6.63;3.42;;;;;;;;;;5038828;28;20086;-86
2022/04/26 10:52:18;;;;;;;5.88;3.80;;;;;;;;;;5056459;28;20044;-83
2022/04/26 10:55:07;;;;;;;7.95;5.07;;;;;;;;;;5056169;28;20026;-84
2022/04/26 10:57:35;;;;;;;11.15;3.97;;;;;;;;;;5054934;28;20029;-84
2022/04/26 11:00:15;;;;;;;6.40;4.72;;;;;;;;;;5037868;28;20479;-83
2022/04/26 11:02:46;;;;;;;5.63;3.60;;;;;;;;;;5056376;28;20028;-84
2022/04/26 11:05:26;;;;;;;4.78;3.65;;;;;;;;;;5056688;28;20482;-84
2022/04/26 11:07:52;;;;;;;5.30;4.20;;;;;;;;;;5055432;28;20032;-83
2022/04/26 11:10:23;;;;;;;6.68;4.90;;;;;;;;;;5055738;28;20029;-85
2022/04/26 11:12:50;;;;;;;8.73;4.60;;;;;;;;;;5055599;28;20104;-83
2022/04/26 11:15:19;;;;;;;8.70;4.85;;;;;;;;;;5037783;28;20094;-84
2022/04/26 11:17:46;;;;;;;7.40;5.15;;;;;;;;;;5055876;28;20045;-84
2022/04/26 11:20:12;;;;;;;8.85;5.32;;;;;;;;;;5055711;28;20024;-86
2022/04/26 11:22:52;;;;;;;10.02;5.93;;;;;;;;;;5055253;28;20036;-83
2022/04/26 11:28:12;;;;;;;10.70;6.43;;;;;;;;;;5056212;28;20077;-85
2022/04/26 11:30:40;;;;;;;8.25;5.97;;;;;;;;;;5051988;28;20414;-85
2022/04/26 11:33:08;;;;;;;8.77;5.68;;;;;;;;;;5055260;28;20081;-86
2022/04/26 11:35:34;;;;;;;9.10;5.60;;;;;;;;;;5055546;28;20104;-84
2022/04/26 11:38:14;;;;;;;6.65;4.53;;;;;;;;;;5055771;28;20017;-85
2022/04/26 11:40:46;;;;;;;7.20;5.28;;;;;;;;;;5055757;28;20025;-84
2022/04/26 11:43:19;;;;;;;;;;;;;;;;;;5055766;28;20095;-83
2022/04/26 11:45:45;;;;;;;;;;;;;;;;;;5055507;28;20332;-83
2022/04/26 11:48:15;;;;;;;7.68;4.50;;;;;;;;;;5055265;28;19908;-87
2022/04/26 11:50:42;;;;;;;7.65;4.20;;;;;;;;;;5064667;28;20068;-87
2022/04/26 11:53:39;;;;;;;5.40;4.60;;;;;;;;;;5040924;28;20025;-88
2022/04/26 11:56:05;;;;;;;7.07;4.40;;;;;;;;;;5055834;28;20056;-88
2022/04/26 11:58:32;;;;;;;8.27;3.97;;;;;;;;;;5060793;28;20390;-85
2022/04/26 12:01:12;;;;;;;5.65;4.18;;;;;;;;;;5061569;28;20029;-87
2022/04/26 12:03:44;;;;;;;7.28;4.30;;;;;;;;;;5062716;28;20151;-87
2022/04/26 12:06:13;;;;;;;3.63;3.20;;;;;;;;;;5061291;28;20025;-86
2022/04/26 12:08:42;;;;;;;6.20;3.92;;;;;;;;;;5064679;28;20036;-84
2022/04/26 12:11:24;;;;;;;6.97;4.10;;;;;;;;;;5076562;28;20063;-82
2022/04/26 12:14:01;;;;;;;;;;;;;;;;;;5077146;28;20110;-84
2022/04/26 12:16:28;;;;;;;8.25;4.15;;;;;;;;;;5075256;28;19924;-85
2022/04/26 12:19:03;;;;;;;7.75;4.00;;;;;;;;;;5061105;28;20024;-85
2022/04/26 12:21:42;;;;;;;5.57;3.92;;;;;;;;;;5058199;28;20036;-85
2022/04/26 12:24:21;;;;;;;6.55;4.63;;;;;;;;;;5058930;28;20039;-86
2022/04/26 12:27:03;;;;;;;8.38;5.30;;;;;;;;;;5057753;28;20032;-84
2022/04/26 12:29:28;;;;;;;;;;;;;;;;;;5056773;28;20040;-84
2022/04/26 12:31:55;;;;;;;3.50;2.45;;;;;;;;;;5055138;28;19908;-84
2022/04/26 12:34:48;;;;;;;4.13;1.60;;;;;;;;;;5036334;28;20021;-86
2022/04/26 12:37:22;;;;;;;1.73;1.58;;;;;;;;;;5056546;28;20453;-87
2022/04/26 12:39:55;;;;;;;1.58;1.48;;;;;;;;;;5052443;28;20105;-87
2022/04/26 12:42:26;;;;;;;4.47;1.95;;;;;;;;;;5056547;28;20079;-88
2022/04/26 12:44:54;;;;;;;3.63;2.67;;;;;;;;;;5056487;28;20029;-86
2022/04/26 12:52:54;;;;;;;4.78;2.63;;;;;;;;;;5056624;28;20067;-86
2022/04/26 12:55:39;;;;;;;2.42;1.90;;;;;;;;;;5036060;28;20013;-87
2022/04/26 12:58:06;;;;;;;3.05;1.10;;;;;;;;;;5043478;28;20447;-84
2022/04/26 13:00:33;;;;;;;1.75;1.60;;;;;;;;;;5049606;28;20025;-88
2022/04/26 13:03:01;;;;;;;1.88;1.50;;;;;;;;;;5051564;28;20029;-87
2022/04/26 13:05:27;;;;;;;1.70;1.58;;;;;;;;;;5057561;28;20119;-86
2022/04/26 13:07:53;;;;;;;2.25;1.30;;;;;;;;;;5053302;28;20025;-86
2022/04/26 13:10:20;;;;;;;5.65;1.58;;;;;;;;;;5041667;28;20025;-87
2022/04/26 13:12:46;;;;;;;5.93;2.08;;;;;;;;;;5059928;28;20025;-86
2022/04/26 13:15:13;;;;;;;3.47;1.42;;;;;;;;;;5039351;28;20032;-88
2022/04/26 13:17:39;;;;;;;2.65;1.58;;;;;;;;;;5051906;28;20055;-88
2022/04/26 13:20:05;;;;;;;1.95;1.45;;;;;;;;;;5061564;28;20466;-88
2022/04/26 13:22:32;;;;;;;2.35;1.70;;;;;;;;;;5066789;28;20049;-85
2022/04/26 13:24:58;;;;;;;1.45;1.35;;;;;;;;;;5066110;28;20088;-85
2022/04/26 13:27:26;;;;;;;1.63;1.10;;;;;;;;;;5068278;28;20107;-85
2022/04/26 13:29:52;;;;;;;1.30;1.20;;;;;;;;;;5069384;28;20017;-87
2022/04/26 13:32:17;;;;;;;1.50;1.40;;;;;;;;;;5070556;28;20051;-85
2022/04/26 13:34:44;;;;;;;1.35;1.20;;;;;;;;;;5069124;28;20033;-87
2022/04/26 13:37:10;;;;;;;2.53;1.60;;;;;;;;;;5070078;28;20014;-83
2022/04/26 13:39:36;;;;;;;1.52;1.42;;;;;;;;;;5074596;28;20036;-83
2022/04/26 13:42:02;;;;;;;1.83;1.73;;;;;;;;;;5069777;28;20025;-86
2022/04/26 13:44:28;;;;;;;1.80;1.70;;;;;;;;;;5056889;28;20112;-86
2022/04/26 13:46:54;;;;;;;2.55;1.85;;;;;;;;;;5058737;28;20073;-85
2022/04/26 13:49:19;;;;;;;2.60;2.25;;;;;;;;;;5053220;28;20056;-85
2022/04/26 13:51:45;;;;;;;2.65;2.33;;;;;;;;;;5056310;28;20037;-85
2022/04/26 13:54:11;;;;;;;3.72;2.58;;;;;;;;;;5059084;28;20036;-86
2022/04/26 13:56:36;;;;;;;2.08;1.90;;;;;;;;;;5131186;22;20071;-86
2022/04/26 13:59:02;;;;;;;2.60;2.10;;;;;;;;;;5022336;28;20496;-85
2022/04/26 14:01:27;;;;;;;2.03;1.90;;;;;;;;;;5036746;28;20044;-83
2022/04/26 14:03:53;;;;;;;3.42;2.70;;;;;;;;;;5038553;28;20018;-82
2022/04/26 14:06:21;;;;;;;3.40;2.33;;;;;;;;;;5038623;28;20037;-85
2022/04/26 14:08:49;;;;;;;5.55;2.38;;;;;;;;;;5032708;28;20030;-86
2022/04/26 14:11:15;;;;;;;1.90;1.80;;;;;;;;;;5036400;28;20029;-83
2022/04/26 14:21:52;;;;;;;6.93;2.50;;;;;;;;;;5041847;28;20033;-84
2022/04/26 14:24:18;;;;;;;3.40;2.80;;;;;;;;;;5039995;28;20017;-85
2022/04/26 14:26:43;;;;;;;4.40;2.80;;;;;;;;;;5039998;28;20406;-84
2022/04/26 14:29:09;;;;;;;7.78;2.70;;;;;;;;;;5039991;28;20049;-83
2022/04/26 14:31:38;;;;;;;3.65;2.65;;;;;;;;;;5042348;28;20029;-86
2022/04/26 14:34:04;;;;;;;2.80;2.40;;;;;;;;;;5040919;28;20018;-85
2022/04/26 14:36:29;;;;;;;5.85;2.67;;;;;;;;;;5040201;28;20398;-83
2022/04/26 14:38:54;;;;;;;2.38;2.13;;;;;;;;;;5039947;28;20029;-84
2022/04/26 14:41:20;;;;;;;2.72;2.20;;;;;;;;;;5023167;28;20025;-85
2022/04/26 14:43:45;;;;;;;3.28;1.98;;;;;;;;;;5039767;28;20040;-83
2022/04/26 14:46:11;;;;;;;2.17;1.75;;;;;;;;;;5026296;28;20051;-86
2022/04/26 14:48:38;;;;;;;3.28;2.15;;;;;;;;;;5030563;28;20036;-86
2022/04/26 14:51:04;;;;;;;2.70;1.77;;;;;;;;;;5037786;28;20025;-87
2022/04/26 14:53:29;;;;;;;1.92;1.73;;;;;;;;;;5039909;28;20112;-85
2022/04/26 14:55:59;;;;;;;2.67;1.70;;;;;;;;;;5022780;28;20059;-85
2022/04/26 14:58:24;;;;;;;3.97;2.00;;;;;;;;;;5038969;28;20032;-85
2022/04/26 15:00:51;;;;;;;2.30;2.00;;;;;;;;;;5022565;28;20026;-87
2022/04/26 15:03:16;;;;;;;3.20;2.22;;;;;;;;;;5039153;28;20052;-83
2022/04/26 15:05:42;;;;;;;2.65;2.03;;;;;;;;;;5038389;28;20030;-85
2022/04/26 15:10:51;;;;;;;2.30;1.80;;;;;;;;;;5039479;28;20029;-84
2022/04/26 15:18:44;;;;;;;3.15;2.40;;;;;;;;;;5036273;28;20040;-85
2022/04/26 15:21:09;;;;;;;3.80;2.30;;;;;;;;;;5038049;28;20025;-85
2022/04/26 15:23:35;;;;;;;4.78;2.55;;;;;;;;;;5038345;28;20017;-85
2022/04/26 15:26:04;;;;;;;5.78;2.55;;;;;;;;;;5020819;28;20021;-86
2022/04/26 15:28:30;;;;;;;2.00;1.80;;;;;;;;;;5020426;28;20025;-86
2022/04/26 15:30:56;;;;;;;2.95;2.35;;;;;;;;;;5037782;28;20036;-84
2022/04/26 15:33:22;;;;;;;3.30;2.33;;;;;;;;;;5037865;28;20021;-85
2022/04/26 15:35:48;;;;;;;3.00;2.40;;;;;;;;;;5038853;28;20026;-86
2022/04/26 15:38:33;;;;;;;2.35;2.10;;;;;;;;;;5040651;28;20070;-86
2022/04/26 15:41:05;;;;;;;5.28;2.65;;;;;;;;;;5031099;28;20025;-84
2022/04/26 15:43:31;;;;;;;4.65;2.55;;;;;;;;;;5037934;28;20573;-85
2022/04/26 15:45:56;;;;;;;2.35;2.10;;;;;;;;;;5039538;28;20037;-86
2022/04/26 15:48:23;;;;;;;3.08;2.22;;;;;;;;;;5036019;28;20593;-83
2022/04/26 15:50:48;;;;;;;3.58;2.78;;;;;;;;;;5041627;28;20099;-86
2022/04/26 15:53:14;;;;;;;3.80;2.72;;;;;;;;;;5042563;28;20037;-84
2022/04/26 15:55:39;;;;;;;2.97;2.45;;;;;;;;;;5040106;28;20040;-83
2022/04/26 15:58:05;;;;;;;3.97;2.90;;;;;;;;;;5066048;28;20683;-82
2022/04/26 16:00:31;;;;;;;3.55;2.65;;;;;;;;;;5066125;28;20510;-86
2022/04/26 16:02:56;;;;;;;4.65;2.72;;;;;;;;;;5059539;28;20056;-84
2022/04/26 16:05:22;;;;;;;2.30;2.10;;;;;;;;;;5039974;28;20405;-83
2022/04/26 16:07:47;;;;;;;1.77;1.67;;;;;;;;;;5062565;28;20035;-84
2022/04/26 16:21:09;;;;;;;5.90;2.25;;;;;;;;;;5057215;28;20051;-83
2022/04/26 16:23:34;;;;;;;3.28;2.08;;;;;;;;;;5040719;28;20021;-85
2022/04/26 16:26:02;;;;;;;2.55;2.30;;;;;;;;;;5040450;28;20033;-85
2022/04/26 16:28:34;;;;;;;2.00;1.80;;;;;;;;;;5058293;28;20080;-83
2022/04/26 16:31:00;;;;;;;3.00;1.88;;;;;;;;;;5059340;28;20025;-85
2022/04/26 16:33:26;;;;;;;1.50;1.40;;;;;;;;;;5042044;28;20055;-81
2022/04/26 16:35:52;;;;;;;2.17;1.90;;;;;;;;;;5057480;28;20051;-85
2022/04/26 16:38:17;;;;;;;3.47;1.90;;;;;;;;;;5057722;28;20025;-84
2022/04/26 16:40:44;;;;;;;2.17;1.90;;;;;;;;;;5056481;28;20043;-85
2022/04/26 16:43:11;;;;;;;2.13;1.92;;;;;;;;;;5042777;28;20020;-83
2022/04/26 16:45:36;;;;;;;2.35;1.50;;;;;;;;;;5057640;28;20045;-82
2022/04/26 16:48:02;;;;;;;1.52;1.42;;;;;;;;;;5038970;28;20120;-84
2022/04/26 16:50:27;;;;;;;3.42;1.50;;;;;;;;;;5057832;28;20542;-83
2022/04/26 16:52:54;;;;;;;1.63;1.52;;;;;;;;;;5057312;28;20017;-81
2022/04/26 16:55:21;;;;;;;1.58;1.48;;;;;;;;;;5043443;28;20029;-84
2022/04/26 16:57:47;;;;;;;1.30;1.20;;;;;;;;;;5037862;28;20033;-83
2022/04/26 17:00:14;;;;;;;1.80;1.40;;;;;;;;;;5050708;28;20032;-85
2022/04/26 17:02:40;;;;;;;2.13;1.70;;;;;;;;;;5058159;28;20013;-82
2022/04/26 17:05:06;;;;;;;3.65;1.40;;;;;;;;;;5057711;28;20052;-83
2022/04/26 17:07:31;;;;;;;1.90;1.60;;;;;;;;;;5058509;28;20029;-83
2022/04/26 17:09:56;;;;;;;1.52;1.42;;;;;;;;;;5052585;28;20024;-83
2022/04/26 17:12:22;;;;;;;2.33;1.42;;;;;;;;;;5040501;28;20021;-82
2022/04/26 17:14:47;;;;;;;1.67;1.58;;;;;;;;;;5057938;28;20056;-85
2022/04/26 17:17:13;;;;;;;1.98;1.60;;;;;;;;;;5057936;28;20033;-84
2022/04/26 17:20:16;;;;;;;2.10;1.90;;;;;;;;;;5057751;28;20079;-84
2022/04/26 17:22:43;;;;;;;2.03;1.67;;;;;;;;;;5057053;28;20467;-82
2022/04/26 17:25:15;;;;;;;1.83;1.73;;;;;;;;;;5056930;28;20036;-83
2022/04/26 17:27:42;;;;;;;1.83;1.70;;;;;;;;;;5057454;28;20032;-86
2022/04/26 17:30:10;;;;;;;2.65;2.20;;;;;;;;;;5057190;28;20043;-86
2022/04/26 17:32:35;;;;;;;2.33;1.70;;;;;;;;;;5041013;28;20055;-83
2022/04/26 17:35:01;;;;;;;2.28;1.65;;;;;;;;;;5056536;28;20035;-82
2022/04/26 17:37:27;;;;;;;1.75;1.60;;;;;;;;;;5057236;28;20017;-84
2022/04/26 17:39:52;;;;;;;2.10;1.90;;;;;;;;;;5056325;28;20029;-83
2022/04/26 17:42:18;;;;;;;2.22;1.80;;;;;;;;;;5056933;28;20025;-82
2022/04/26 17:44:44;;;;;;;2.40;1.77;;;;;;;;;;5056547;28;20157;-82
2022/04/26 17:47:11;;;;;;;2.30;2.10;;;;;;;;;;5039255;28;20386;-82
2022/04/26 17:49:38;;;;;;;2.13;1.70;;;;;;;;;;5062537;28;20377;-84
2022/04/26 17:52:04;;;;;;;1.63;1.52;;;;;;;;;;5036136;28;20029;-85
2022/04/26 17:57:13;;;;;;;1.70;1.60;;;;;;;;;;5045001;28;20594;-84
2022/04/26 17:59:38;;;;;;;2.35;1.85;;;;;;;;;;5036789;28;20056;-83
2022/04/26 18:02:04;;;;;;;2.80;1.85;;;;;;;;;;5025084;28;20044;-83
2022/04/26 18:04:29;;;;;;;1.88;1.65;;;;;;;;;;5032195;28;20025;-83
2022/04/26 18:06:55;;;;;;;3.08;1.88;;;;;;;;;;5045753;28;20032;-82
2022/04/26 18:09:21;;;;;;;2.17;1.77;;;;;;;;;;5051206;28;20029;-83
2022/04/26 18:11:46;;;;;;;1.98;1.80;;;;;;;;;;5051381;28;20028;-82
2022/04/26 18:14:13;;;;;;;3.70;2.00;;;;;;;;;;5043982;28;20079;-79
2022/04/26 18:16:39;;;;;;;1.73;1.63;;;;;;;;;;5029010;28;20033;-82
2022/04/26 18:19:05;;;;;;;2.13;1.77;;;;;;;;;;5053061;28;20021;-83
2022/04/26 18:21:31;;;;;;;3.03;1.92;;;;;;;;;;5057183;28;20085;-82
2022/04/26 18:23:57;;;;;;;2.25;1.90;;;;;;;;;;5018145;28;20018;-85
2022/04/26 18:26:23;;;;;;;2.72;2.38;;;;;;;;;;5059466;28;20216;-83
2022/04/26 18:28:53;;;;;;;3.00;2.35;;;;;;;;;;5044544;28;20063;-81
2022/04/26 18:31:21;;;;;;;3.38;2.70;;;;;;;;;;5053504;28;20108;-81
2022/04/26 18:33:47;;;;;;;3.28;2.25;;;;;;;;;;5037986;28;20044;-82
2022/04/26 18:36:15;;;;;;;5.03;2.30;;;;;;;;;;5028460;28;20045;-85
2022/04/26 18:38:44;;;;;;;3.97;2.28;;;;;;;;;;5045163;28;20372;-84
2022/04/26 18:41:09;;;;;;;2.90;2.30;;;;;;;;;;5038312;28;20022;-81
2022/04/26 18:43:38;;;;;;;3.67;2.42;;;;;;;;;;5045561;28;20109;-84
2022/04/26 18:46:05;;;;;;;3.47;2.60;;;;;;;;;;5053766;28;20030;-86
2022/04/26 18:48:31;;;;;;;4.88;2.55;;;;;;;;;;5027273;28;20033;-83
2022/04/26 18:50:57;;;;;;;4.70;2.45;;;;;;;;;;5025970;28;20055;-84
2022/04/26 18:53:23;;;;;;;8.00;2.20;;;;;;;;;;5046543;28;20028;-83
2022/04/26 18:55:49;;;;;;;2.88;2.40;;;;;;;;;;5041552;28;20036;-83
2022/04/26 18:58:17;;;;;;;3.20;2.58;;;;;;;;;;5061124;28;20040;-83
2022/04/26 19:00:43;;;;;;;3.92;2.67;;;;;;;;;;5047265;28;20032;-83